Time;durP1;ratioP1;P1;durP2;ratioP2;P2;SDS_P1;SDS_P2;PMS_P1;PMS_P2;Temp;Humidity;BMP_temperature;BMP_pressure;BME280_temperature;BME280_humidity;BME280_pressure;Samples;Min_cycle;Max_cycle;Signal;HPM_P1;HPM_P2
2022/04/17 00:01:23;;;;;;;12.43;6.40;;;;;;;;;;753065;184;1020571;-63
2022/04/17 00:03:49;;;;;;;11.30;6.17;;;;;;;;;;753487;183;918827;-63
2022/04/17 00:06:15;;;;;;;8.63;5.00;;;;;;;;;;761816;184;919826;-64
2022/04/17 00:08:40;;;;;;;14.63;5.77;;;;;;;;;;758351;183;1018191;-64
2022/04/17 00:11:06;;;;;;;11.53;6.00;;;;;;;;;;756007;184;919432;-63
2022/04/17 00:13:32;;;;;;;11.40;8.20;;;;;;;;;;752921;184;919798;-63
2022/04/17 00:15:58;;;;;;;9.50;5.53;;;;;;;;;;758417;184;919141;-63
2022/04/17 00:18:24;;;;;;;13.17;5.80;;;;;;;;;;755232;183;918731;-62
2022/04/17 00:20:50;;;;;;;8.00;5.20;;;;;;;;;;756411;184;919020;-63
2022/04/17 00:23:15;;;;;;;9.53;6.20;;;;;;;;;;758533;184;918591;-62
2022/04/17 00:25:41;;;;;;;11.40;6.10;;;;;;;;;;755211;184;917234;-63
2022/04/17 00:28:08;;;;;;;12.03;6.13;;;;;;;;;;753693;183;918620;-63
2022/04/17 00:30:33;;;;;;;10.07;5.57;;;;;;;;;;761403;184;922974;-63
2022/04/17 00:32:59;;;;;;;10.70;7.17;;;;;;;;;;760337;182;921216;-63
2022/04/17 00:35:25;;;;;;;13.30;6.60;;;;;;;;;;757928;183;918961;-63
2022/04/17 00:37:50;;;;;;;11.87;6.00;;;;;;;;;;756113;184;917619;-63
2022/04/17 00:40:16;;;;;;;11.10;5.70;;;;;;;;;;750941;184;918438;-61
2022/04/17 00:42:42;;;;;;;10.10;6.30;;;;;;;;;;760850;183;920929;-63
2022/04/17 00:45:09;;;;;;;12.43;7.03;;;;;;;;;;760952;183;918884;-63
2022/04/17 00:47:34;;;;;;;12.83;6.47;;;;;;;;;;760895;183;920879;-64
2022/04/17 00:50:00;;;;;;;12.27;6.27;;;;;;;;;;753521;184;916511;-63
2022/04/17 00:52:26;;;;;;;9.47;5.63;;;;;;;;;;753336;184;916048;-63
2022/04/17 00:54:53;;;;;;;12.87;5.80;;;;;;;;;;761769;183;918844;-63
2022/04/17 00:57:17;;;;;;;8.43;5.43;;;;;;;;;;754078;184;919436;-62
2022/04/17 00:59:44;;;;;;;9.27;5.83;;;;;;;;;;754235;184;919034;-63
2022/04/17 01:02:10;;;;;;;11.93;6.37;;;;;;;;;;756404;183;921057;-62
2022/04/17 01:04:36;;;;;;;10.87;6.00;;;;;;;;;;761087;184;918489;-62
2022/04/17 01:07:02;;;;;;;11.60;6.30;;;;;;;;;;750686;184;933436;-62
2022/04/17 01:09:27;;;;;;;11.80;7.03;;;;;;;;;;749070;184;918028;-63
2022/04/17 01:11:53;;;;;;;9.63;6.17;;;;;;;;;;754801;184;918607;-63
2022/04/17 01:14:20;;;;;;;10.47;6.80;;;;;;;;;;725013;188;918776;-64
2022/04/17 01:16:46;;;;;;;12.97;7.10;;;;;;;;;;742073;187;919736;-63
2022/04/17 01:19:11;;;;;;;12.60;7.13;;;;;;;;;;758705;184;918190;-63
2022/04/17 01:21:37;;;;;;;11.50;7.00;;;;;;;;;;760838;183;918995;-63
2022/04/17 01:29:07;;;;;;;12.77;7.60;;;;;;;;;;761164;183;917921;-64
2022/04/17 01:31:33;;;;;;;12.70;6.50;;;;;;;;;;754164;184;920465;-63
2022/04/17 01:33:58;;;;;;;15.53;7.43;;;;;;;;;;753308;184;1016025;-63
2022/04/17 01:36:24;;;;;;;14.23;6.93;;;;;;;;;;758488;184;924149;-63
2022/04/17 01:38:50;;;;;;;19.03;6.50;;;;;;;;;;757119;183;919353;-63
2022/04/17 01:41:18;;;;;;;12.30;7.27;;;;;;;;;;754836;184;919097;-62
2022/04/17 01:43:42;;;;;;;12.23;6.75;;;;;;;;;;754894;182;918960;-63
2022/04/17 01:46:08;;;;;;;13.50;8.17;;;;;;;;;;768311;182;918693;-62
2022/04/17 01:48:33;;;;;;;9.00;6.12;;;;;;;;;;754728;183;919327;-63
2022/04/17 01:50:59;;;;;;;11.27;6.20;;;;;;;;;;754285;183;998254;-63
2022/04/17 01:53:25;;;;;;;10.50;5.80;;;;;;;;;;763401;183;918578;-62
2022/04/17 01:55:51;;;;;;;10.60;6.10;;;;;;;;;;756414;184;918681;-63
2022/04/17 01:58:17;;;;;;;14.30;7.00;;;;;;;;;;755371;184;919597;-62
2022/04/17 02:00:43;;;;;;;9.18;6.37;;;;;;;;;;762222;184;918632;-62
2022/04/17 02:03:09;;;;;;;13.70;6.70;;;;;;;;;;759101;183;919883;-63
2022/04/17 02:05:34;;;;;;;9.53;7.37;;;;;;;;;;753132;184;918818;-63
2022/04/17 02:08:00;;;;;;;13.20;6.73;;;;;;;;;;757388;183;916934;-62
2022/04/17 02:10:26;;;;;;;10.20;6.60;;;;;;;;;;758684;184;918356;-63
2022/04/17 02:12:52;;;;;;;15.23;7.73;;;;;;;;;;756409;184;919547;-62
2022/04/17 02:15:18;;;;;;;13.47;7.63;;;;;;;;;;751534;184;919506;-62
2022/04/17 02:17:44;;;;;;;18.20;9.17;;;;;;;;;;763516;184;918600;-63
2022/04/17 02:20:10;;;;;;;14.37;8.30;;;;;;;;;;755051;184;918991;-62
2022/04/17 02:22:36;;;;;;;11.07;7.70;;;;;;;;;;756375;184;918789;-61
2022/04/17 02:25:01;;;;;;;9.83;7.30;;;;;;;;;;763700;184;919147;-63
2022/04/17 02:27:27;;;;;;;9.87;7.17;;;;;;;;;;759297;183;919710;-63
2022/04/17 02:29:53;;;;;;;16.83;7.67;;;;;;;;;;757495;184;967772;-62
2022/04/17 02:32:19;;;;;;;12.70;8.35;;;;;;;;;;760278;183;919234;-61
2022/04/17 02:34:45;;;;;;;10.40;7.37;;;;;;;;;;748146;185;920082;-63
2022/04/17 02:37:11;;;;;;;11.37;7.50;;;;;;;;;;747552;184;919451;-62
2022/04/17 02:39:37;;;;;;;16.30;7.73;;;;;;;;;;753113;184;918808;-63
2022/04/17 02:42:02;;;;;;;14.03;7.97;;;;;;;;;;761571;184;927328;-63
2022/04/17 02:44:28;;;;;;;16.10;8.10;;;;;;;;;;755845;184;919393;-62
2022/04/17 02:49:26;;;;;;;14.47;8.43;;;;;;;;;;761670;184;919957;-62
2022/04/17 02:51:52;;;;;;;13.50;8.70;;;;;;;;;;757759;184;919200;-61
2022/04/17 02:54:17;;;;;;;18.80;8.93;;;;;;;;;;758282;184;919343;-63
2022/04/17 02:56:45;;;;;;;10.70;7.63;;;;;;;;;;755880;182;919976;-62
2022/04/17 02:59:09;;;;;;;11.37;8.40;;;;;;;;;;756922;183;919578;-62
2022/04/17 03:06:38;;;;;;;18.23;9.20;;;;;;;;;;749589;184;1021510;-62
2022/04/17 03:09:04;;;;;;;17.87;10.30;;;;;;;;;;762546;184;976892;-63
2022/04/17 03:11:30;;;;;;;13.10;9.48;;;;;;;;;;756042;184;919074;-62
2022/04/17 03:13:56;;;;;;;18.67;11.47;;;;;;;;;;752856;184;918422;-62
2022/04/17 03:16:22;;;;;;;17.20;9.93;;;;;;;;;;757204;184;919673;-62
2022/04/17 03:18:49;;;;;;;16.37;10.10;;;;;;;;;;762042;183;919423;-61
2022/04/17 03:21:13;;;;;;;17.30;10.10;;;;;;;;;;759770;184;948542;-61
2022/04/17 03:23:39;;;;;;;13.63;9.90;;;;;;;;;;762132;184;1020709;-62
2022/04/17 03:26:05;;;;;;;17.07;10.30;;;;;;;;;;758852;183;921263;-62
2022/04/17 03:28:31;;;;;;;20.33;11.18;;;;;;;;;;757759;183;919096;-62
2022/04/17 03:30:57;;;;;;;13.30;9.73;;;;;;;;;;754583;183;918236;-62
2022/04/17 03:33:23;;;;;;;13.73;8.57;;;;;;;;;;751203;188;917081;-62
2022/04/17 03:35:48;;;;;;;14.13;9.10;;;;;;;;;;751239;184;918662;-62
2022/04/17 03:38:14;;;;;;;16.57;10.03;;;;;;;;;;752648;184;919373;-61
2022/04/17 03:40:40;;;;;;;21.90;11.30;;;;;;;;;;765878;183;910971;-66
2022/04/17 03:43:07;;;;;;;16.47;11.03;;;;;;;;;;761608;183;918351;-62
2022/04/17 03:45:32;;;;;;;15.17;10.33;;;;;;;;;;754416;183;919744;-62
2022/04/17 03:47:58;;;;;;;12.10;9.10;;;;;;;;;;762739;184;936822;-61
2022/04/17 03:50:24;;;;;;;15.60;11.00;;;;;;;;;;758786;183;919681;-61
2022/04/17 03:52:50;;;;;;;14.43;9.50;;;;;;;;;;759366;184;914414;-61
2022/04/17 03:55:15;;;;;;;17.12;10.00;;;;;;;;;;754677;183;917452;-60
2022/04/17 03:57:41;;;;;;;17.30;10.10;;;;;;;;;;765004;183;926373;-61
2022/04/17 04:00:07;;;;;;;13.83;9.73;;;;;;;;;;760253;183;913153;-61
2022/04/17 04:02:33;;;;;;;16.05;9.80;;;;;;;;;;759228;183;915829;-62
2022/04/17 04:04:59;;;;;;;16.13;9.57;;;;;;;;;;758784;184;915031;-61
2022/04/17 04:07:25;;;;;;;24.80;11.37;;;;;;;;;;757744;182;921401;-62
2022/04/17 04:09:51;;;;;;;21.40;12.00;;;;;;;;;;756976;184;919337;-62
2022/04/17 04:12:16;;;;;;;21.27;10.00;;;;;;;;;;763384;183;910920;-61
2022/04/17 04:14:43;;;;;;;18.33;10.40;;;;;;;;;;756561;182;919446;-62
2022/04/17 04:17:09;;;;;;;17.13;10.27;;;;;;;;;;751769;183;919345;-62
2022/04/17 04:19:34;;;;;;;14.70;10.33;;;;;;;;;;759459;184;915824;-61
2022/04/17 04:22:00;;;;;;;18.43;10.63;;;;;;;;;;754197;184;1017065;-61
2022/04/17 04:24:26;;;;;;;13.80;9.93;;;;;;;;;;754059;184;919057;-62
2022/04/17 04:29:23;;;;;;;19.00;10.60;;;;;;;;;;760839;184;918156;-62
2022/04/17 04:31:49;;;;;;;31.83;17.23;;;;;;;;;;754107;184;921656;-62
2022/04/17 04:34:15;;;;;;;18.83;12.93;;;;;;;;;;755223;184;913776;-62
2022/04/17 04:36:41;;;;;;;18.00;11.70;;;;;;;;;;761753;183;914693;-62
2022/04/17 04:39:07;;;;;;;14.33;10.70;;;;;;;;;;753688;184;915292;-62
2022/04/17 04:41:34;;;;;;;17.12;10.18;;;;;;;;;;756817;183;920617;-61
2022/04/17 04:43:58;;;;;;;20.57;9.37;;;;;;;;;;750925;184;911104;-62
2022/04/17 04:46:24;;;;;;;20.70;10.20;;;;;;;;;;757019;184;913856;-61
2022/04/17 04:51:22;;;;;;;16.37;11.23;;;;;;;;;;753139;183;1120645;-61
2022/04/17 04:53:47;;;;;;;20.00;12.57;;;;;;;;;;760723;183;913481;-62
2022/04/17 04:56:13;;;;;;;21.17;13.20;;;;;;;;;;754292;181;920187;-62
2022/04/17 04:58:39;;;;;;;22.92;15.35;;;;;;;;;;758704;183;916100;-61
2022/04/17 05:01:05;;;;;;;25.90;15.00;;;;;;;;;;758279;184;915598;-61
2022/04/17 05:03:31;;;;;;;24.27;15.63;;;;;;;;;;754518;184;916301;-62
2022/04/17 05:05:57;;;;;;;27.67;16.93;;;;;;;;;;742822;185;915837;-61
2022/04/17 05:08:22;;;;;;;27.33;17.00;;;;;;;;;;752227;184;915587;-60
2022/04/17 05:10:48;;;;;;;27.15;16.87;;;;;;;;;;760036;183;916142;-60
2022/04/17 05:13:14;;;;;;;31.10;17.63;;;;;;;;;;750752;184;915677;-61
2022/04/17 05:15:40;;;;;;;33.80;17.30;;;;;;;;;;753680;184;916466;-61
2022/04/17 05:18:06;;;;;;;30.63;17.30;;;;;;;;;;761035;184;916100;-60
2022/04/17 05:20:33;;;;;;;26.30;17.23;;;;;;;;;;759516;183;919001;-61
2022/04/17 05:23:04;;;;;;;27.93;16.67;;;;;;;;;;755848;183;922260;-61
2022/04/17 05:25:24;;;;;;;29.33;16.40;;;;;;;;;;763688;182;915036;-62
2022/04/17 05:27:50;;;;;;;25.60;16.13;;;;;;;;;;756246;183;1069776;-61
2022/04/17 05:30:16;;;;;;;27.47;17.90;;;;;;;;;;753651;184;918282;-62
2022/04/17 05:32:42;;;;;;;29.40;17.90;;;;;;;;;;755847;183;916493;-61
2022/04/17 05:35:08;;;;;;;35.23;20.00;;;;;;;;;;765607;183;917191;-62
2022/04/17 05:37:33;;;;;;;24.80;17.23;;;;;;;;;;753765;184;918003;-61
2022/04/17 05:39:59;;;;;;;27.25;18.12;;;;;;;;;;755397;183;916434;-62
2022/04/17 05:42:25;;;;;;;28.50;17.53;;;;;;;;;;760754;183;919471;-61
2022/04/17 05:44:51;;;;;;;24.87;16.47;;;;;;;;;;756232;183;916203;-61
2022/04/17 05:47:18;;;;;;;29.83;17.60;;;;;;;;;;753357;184;1015358;-61
2022/04/17 05:49:43;;;;;;;26.90;15.67;;;;;;;;;;760459;183;924495;-61
2022/04/17 05:52:10;;;;;;;20.07;13.83;;;;;;;;;;757006;184;914968;-62
2022/04/17 05:54:36;;;;;;;19.57;12.40;;;;;;;;;;757721;183;916247;-61
2022/04/17 05:57:03;;;;;;;17.35;11.30;;;;;;;;;;759546;183;916095;-63
2022/04/17 05:59:28;;;;;;;19.77;13.13;;;;;;;;;;758949;183;916343;-62
2022/04/17 06:01:54;;;;;;;22.97;12.90;;;;;;;;;;755028;183;915675;-63
2022/04/17 06:04:20;;;;;;;22.13;11.10;;;;;;;;;;753932;183;917835;-63
2022/04/17 06:06:46;;;;;;;30.70;17.13;;;;;;;;;;758934;184;1019697;-63
2022/04/17 06:09:12;;;;;;;18.20;11.80;;;;;;;;;;755908;184;915956;-63
2022/04/17 06:11:38;;;;;;;13.67;9.47;;;;;;;;;;755095;183;919766;-62
2022/04/17 06:14:04;;;;;;;14.70;10.40;;;;;;;;;;760218;183;915179;-61
2022/04/17 06:16:29;;;;;;;30.50;17.75;;;;;;;;;;753915;183;916437;-62
2022/04/17 06:18:55;;;;;;;19.00;11.50;;;;;;;;;;756860;184;915095;-63
2022/04/17 06:21:21;;;;;;;13.70;8.30;;;;;;;;;;757462;184;986338;-63
2022/04/17 06:23:47;;;;;;;16.57;8.87;;;;;;;;;;758963;184;915480;-63
2022/04/17 06:26:13;;;;;;;15.30;9.33;;;;;;;;;;752497;184;915568;-63
2022/04/17 06:28:39;;;;;;;17.20;10.57;;;;;;;;;;755631;183;920476;-63
2022/04/17 06:31:07;;;;;;;16.27;8.83;;;;;;;;;;758987;183;919588;-62
2022/04/17 06:33:30;;;;;;;15.23;8.23;;;;;;;;;;762809;182;921062;-62
2022/04/17 06:35:56;;;;;;;15.82;8.55;;;;;;;;;;765578;182;619049;-62
2022/04/17 06:38:23;;;;;;;12.77;8.60;;;;;;;;;;766816;183;624901;-64
2022/04/17 06:40:48;;;;;;;18.30;8.60;;;;;;;;;;762329;183;629859;-64
2022/04/17 06:43:14;;;;;;;23.23;11.87;;;;;;;;;;760466;184;616017;-63
2022/04/17 06:45:40;;;;;;;16.83;9.23;;;;;;;;;;760148;183;701682;-63
2022/04/17 06:48:20;;;;;;;15.67;8.67;;;;;;;;;;758454;184;624653;-64
2022/04/17 06:50:45;;;;;;;13.47;8.10;;;;;;;;;;761269;180;619268;-63
2022/04/17 06:53:11;;;;;;;13.20;6.40;;;;;;;;;;749440;186;919477;-62
2022/04/17 06:55:38;;;;;;;13.73;7.90;;;;;;;;;;748587;184;915761;-64
2022/04/17 06:58:03;;;;;;;15.10;9.30;;;;;;;;;;750745;185;985574;-62
2022/04/17 07:00:29;;;;;;;16.30;8.07;;;;;;;;;;755478;184;915676;-63
2022/04/17 07:02:55;;;;;;;11.43;6.93;;;;;;;;;;756876;184;915534;-62
2022/04/17 07:05:20;;;;;;;13.60;6.50;;;;;;;;;;763768;184;914894;-62
2022/04/17 07:07:46;;;;;;;12.77;5.83;;;;;;;;;;757869;184;915775;-62
2022/04/17 07:10:12;;;;;;;13.80;6.40;;;;;;;;;;755891;184;915881;-62
2022/04/17 07:12:39;;;;;;;13.80;8.70;;;;;;;;;;754289;185;915265;-63
2022/04/17 07:15:06;;;;;;;13.50;7.00;;;;;;;;;;754922;184;915335;-63
2022/04/17 07:17:32;;;;;;;10.27;6.13;;;;;;;;;;748733;185;918702;-63
2022/04/17 07:19:58;;;;;;;11.50;8.00;;;;;;;;;;750100;184;915693;-63
2022/04/17 07:22:24;;;;;;;12.13;7.50;;;;;;;;;;767637;183;938484;-62
2022/04/17 07:24:53;;;;;;;12.10;7.30;;;;;;;;;;762828;183;915435;-62
2022/04/17 07:27:16;;;;;;;11.47;7.70;;;;;;;;;;756085;183;1015770;-63
2022/04/17 07:29:41;;;;;;;16.13;9.03;;;;;;;;;;757067;183;928297;-63
2022/04/17 07:32:07;;;;;;;22.23;11.90;;;;;;;;;;753551;183;913506;-63
2022/04/17 07:34:33;;;;;;;18.63;11.10;;;;;;;;;;755637;184;913866;-63
2022/04/17 07:36:59;;;;;;;20.13;17.53;;;;;;;;;;759076;181;913406;-64
2022/04/17 07:39:25;;;;;;;12.83;9.00;;;;;;;;;;752647;184;1012262;-63
2022/04/17 07:41:51;;;;;;;13.33;8.40;;;;;;;;;;755023;184;927330;-64
2022/04/17 07:44:17;;;;;;;16.47;9.23;;;;;;;;;;763733;182;903111;-63
2022/04/17 07:46:43;;;;;;;16.20;10.57;;;;;;;;;;768026;182;791613;-64
2022/04/17 07:49:08;;;;;;;14.20;9.60;;;;;;;;;;756686;183;915908;-63
2022/04/17 07:51:34;;;;;;;14.10;9.80;;;;;;;;;;756529;183;1019848;-63
2022/04/17 07:54:00;;;;;;;22.23;8.90;;;;;;;;;;758984;183;926873;-64
2022/04/17 07:56:26;;;;;;;13.83;7.40;;;;;;;;;;753845;183;914846;-64
2022/04/17 07:58:52;;;;;;;14.60;9.00;;;;;;;;;;753090;183;1015397;-62
2022/04/17 08:01:18;;;;;;;14.80;9.33;;;;;;;;;;760305;183;914352;-64
2022/04/17 08:03:46;;;;;;;14.40;9.00;;;;;;;;;;756231;183;913143;-64
2022/04/17 08:06:15;;;;;;;16.60;9.30;;;;;;;;;;754062;184;911986;-64
2022/04/17 08:08:39;;;;;;;13.63;9.20;;;;;;;;;;757957;184;625965;-63
2022/04/17 08:11:05;;;;;;;16.07;9.47;;;;;;;;;;762510;184;912589;-64
2022/04/17 08:13:31;;;;;;;15.60;8.80;;;;;;;;;;758770;183;916041;-63
2022/04/17 08:15:58;;;;;;;9.53;6.37;;;;;;;;;;755938;183;919170;-63
2022/04/17 08:18:23;;;;;;;10.17;7.03;;;;;;;;;;759484;184;916605;-63
2022/04/17 08:20:49;;;;;;;16.17;8.60;;;;;;;;;;753938;184;919124;-64
2022/04/17 08:23:15;;;;;;;7.27;4.30;;;;;;;;;;759915;184;635657;-64
2022/04/17 08:25:42;;;;;;;15.83;9.10;;;;;;;;;;763876;183;622140;-63
2022/04/17 08:28:08;;;;;;;18.27;10.60;;;;;;;;;;758327;185;912314;-63
2022/04/17 08:30:34;;;;;;;16.83;8.40;;;;;;;;;;748909;185;913849;-63
2022/04/17 08:33:00;;;;;;;14.63;7.70;;;;;;;;;;753597;184;914772;-63
2022/04/17 08:35:25;;;;;;;19.07;9.10;;;;;;;;;;763366;184;914603;-64
2022/04/17 08:37:52;;;;;;;14.77;8.77;;;;;;;;;;755049;184;913778;-66
2022/04/17 08:40:17;;;;;;;15.03;9.07;;;;;;;;;;759367;184;911534;-65
2022/04/17 08:42:44;;;;;;;14.87;7.67;;;;;;;;;;766447;184;624988;-64
2022/04/17 08:45:10;;;;;;;13.00;8.90;;;;;;;;;;762670;184;621244;-66
2022/04/17 08:47:37;;;;;;;19.03;9.37;;;;;;;;;;760897;184;910676;-64
2022/04/17 08:50:03;;;;;;;14.40;9.00;;;;;;;;;;761598;184;915022;-64
2022/04/17 08:52:29;;;;;;;14.07;7.73;;;;;;;;;;756288;186;913629;-66
2022/04/17 08:54:55;;;;;;;13.50;9.30;;;;;;;;;;750638;182;919438;-65
2022/04/17 08:57:22;;;;;;;11.67;7.10;;;;;;;;;;756335;184;915906;-64
2022/04/17 08:59:46;;;;;;;11.70;6.80;;;;;;;;;;755236;184;915223;-64
2022/04/17 09:02:12;;;;;;;14.80;7.87;;;;;;;;;;757927;183;915677;-64
2022/04/17 09:04:38;;;;;;;16.20;7.40;;;;;;;;;;748427;186;919069;-64
2022/04/17 09:07:05;;;;;;;17.50;9.07;;;;;;;;;;750033;185;1018823;-65
2022/04/17 09:09:31;;;;;;;14.33;7.53;;;;;;;;;;745227;186;915402;-64
2022/04/17 09:11:57;;;;;;;13.40;7.17;;;;;;;;;;752735;184;914960;-65
2022/04/17 09:14:23;;;;;;;13.18;7.47;;;;;;;;;;758743;184;919534;-64
2022/04/17 09:16:50;;;;;;;14.53;5.57;;;;;;;;;;754655;184;920752;-65
2022/04/17 09:19:16;;;;;;;9.93;6.43;;;;;;;;;;724732;192;919028;-65
2022/04/17 09:21:42;;;;;;;8.73;5.63;;;;;;;;;;738707;188;926426;-64
2022/04/17 09:24:12;;;;;;;7.30;4.80;;;;;;;;;;733068;191;920185;-63
2022/04/17 09:26:38;;;;;;;9.63;5.63;;;;;;;;;;719991;190;919413;-66
2022/04/17 09:29:03;;;;;;;6.20;5.00;;;;;;;;;;752827;185;919121;-64
2022/04/17 09:31:29;;;;;;;8.00;4.87;;;;;;;;;;755242;183;918630;-65
2022/04/17 09:33:55;;;;;;;8.67;4.83;;;;;;;;;;747630;187;918284;-64
2022/04/17 09:36:21;;;;;;;10.03;4.93;;;;;;;;;;744882;183;918953;-65
2022/04/17 09:38:47;;;;;;;10.57;7.57;;;;;;;;;;758399;184;918942;-65
2022/04/17 09:41:14;;;;;;;14.80;6.93;;;;;;;;;;761026;184;876927;-66
2022/04/17 09:43:39;;;;;;;7.13;4.73;;;;;;;;;;762986;183;918854;-64
2022/04/17 09:46:05;;;;;;;6.07;4.50;;;;;;;;;;760217;183;920194;-65
2022/04/17 09:48:35;;;;;;;8.27;4.37;;;;;;;;;;764798;184;919083;-67
2022/04/17 09:51:00;;;;;;;9.30;4.60;;;;;;;;;;759355;184;918332;-66
2022/04/17 09:53:29;;;;;;;16.97;6.50;;;;;;;;;;757752;184;919244;-66
2022/04/17 09:55:55;;;;;;;8.53;5.83;;;;;;;;;;757962;184;919574;-66
2022/04/17 09:58:22;;;;;;;7.73;4.07;;;;;;;;;;763381;184;929851;-65
2022/04/17 10:00:46;;;;;;;8.80;5.20;;;;;;;;;;759732;184;917790;-64
2022/04/17 10:03:12;;;;;;;9.30;6.30;;;;;;;;;;754625;184;919858;-66
2022/04/17 10:05:38;;;;;;;10.20;6.57;;;;;;;;;;763263;180;914095;-64
2022/04/17 10:08:04;;;;;;;9.40;5.33;;;;;;;;;;753818;184;920978;-65
2022/04/17 10:10:30;;;;;;;7.60;5.32;;;;;;;;;;753100;183;914978;-65
2022/04/17 10:12:56;;;;;;;10.20;5.72;;;;;;;;;;766660;182;913935;-64
2022/04/17 10:15:21;;;;;;;9.20;5.33;;;;;;;;;;761028;182;919256;-65
2022/04/17 10:17:47;;;;;;;10.10;6.90;;;;;;;;;;759326;183;1015975;-64
2022/04/17 10:20:13;;;;;;;8.60;5.60;;;;;;;;;;758973;184;923442;-65
2022/04/17 10:22:39;;;;;;;9.90;6.40;;;;;;;;;;749095;187;914839;-66
2022/04/17 10:25:06;;;;;;;11.80;7.13;;;;;;;;;;762293;180;914015;-65
2022/04/17 10:27:41;;;;;;;7.80;5.50;;;;;;;;;;742922;187;919796;-66
2022/04/17 10:30:10;;;;;;;9.73;4.75;;;;;;;;;;744597;188;919286;-65
2022/04/17 10:32:35;;;;;;;4.97;4.10;;;;;;;;;;733145;190;919864;-66
2022/04/17 10:35:09;;;;;;;7.30;4.90;;;;;;;;;;730515;190;916665;-65
2022/04/17 10:37:36;;;;;;;11.80;5.50;;;;;;;;;;741608;187;918290;-64
2022/04/17 10:40:02;;;;;;;6.10;4.70;;;;;;;;;;744692;187;928022;-66
2022/04/17 10:42:35;;;;;;;9.80;5.07;;;;;;;;;;754599;184;913021;-65
2022/04/17 10:45:03;;;;;;;7.95;5.18;;;;;;;;;;743090;186;916626;-65
2022/04/17 10:47:30;;;;;;;7.80;4.90;;;;;;;;;;739123;187;915807;-65
2022/04/17 10:49:57;;;;;;;7.55;4.95;;;;;;;;;;751643;184;920341;-64
2022/04/17 10:52:28;;;;;;;5.00;3.13;;;;;;;;;;745235;186;914389;-65
2022/04/17 10:54:55;;;;;;;12.37;7.63;;;;;;;;;;757729;184;916611;-66
2022/04/17 10:57:21;;;;;;;8.87;4.60;;;;;;;;;;759562;183;916095;-64
2022/04/17 10:59:47;;;;;;;10.33;5.73;;;;;;;;;;761257;184;915786;-65
2022/04/17 11:02:24;;;;;;;10.63;5.60;;;;;;;;;;759634;183;911370;-65
2022/04/17 11:04:53;;;;;;;5.33;4.10;;;;;;;;;;758884;183;915588;-64
2022/04/17 11:07:19;;;;;;;4.30;2.83;;;;;;;;;;753379;183;1379088;-65
2022/04/17 11:09:46;;;;;;;8.10;5.82;;;;;;;;;;760567;184;916012;-65
2022/04/17 11:12:24;;;;;;;8.43;4.10;;;;;;;;;;761942;183;919293;-67
2022/04/17 11:14:51;;;;;;;8.17;5.37;;;;;;;;;;754222;183;919060;-66
2022/04/17 11:17:19;;;;;;;9.53;6.07;;;;;;;;;;758537;182;919438;-66
2022/04/17 11:19:44;;;;;;;10.87;5.93;;;;;;;;;;754639;184;919117;-65
2022/04/17 11:22:09;;;;;;;6.67;5.33;;;;;;;;;;760833;182;1022170;-66
2022/04/17 11:24:41;;;;;;;11.60;6.07;;;;;;;;;;759072;182;919407;-65
2022/04/17 11:27:06;;;;;;;6.20;5.35;;;;;;;;;;760600;183;920156;-66
2022/04/17 11:29:32;;;;;;;7.97;5.93;;;;;;;;;;761179;184;919619;-66
2022/04/17 11:31:58;;;;;;;9.57;5.70;;;;;;;;;;757593;184;817235;-65
2022/04/17 11:34:24;;;;;;;8.15;5.70;;;;;;;;;;753566;184;919189;-65
2022/04/17 11:36:50;;;;;;;11.90;6.50;;;;;;;;;;763379;183;711917;-66
2022/04/17 11:39:16;;;;;;;11.35;7.32;;;;;;;;;;763600;183;918343;-68
2022/04/17 11:41:41;;;;;;;9.80;6.13;;;;;;;;;;753491;183;919937;-66
2022/04/17 11:44:07;;;;;;;7.50;4.85;;;;;;;;;;758818;184;918337;-65
2022/04/17 11:46:33;;;;;;;7.67;6.20;;;;;;;;;;764128;183;623068;-66
2022/04/17 11:48:59;;;;;;;10.20;6.77;;;;;;;;;;749405;187;620242;-67
2022/04/17 11:51:25;;;;;;;8.15;6.87;;;;;;;;;;743315;187;919073;-66
2022/04/17 11:53:51;;;;;;;8.40;6.50;;;;;;;;;;762101;183;628341;-66
2022/04/17 11:56:17;;;;;;;9.67;5.83;;;;;;;;;;754986;183;917536;-67
2022/04/17 11:58:43;;;;;;;7.80;5.00;;;;;;;;;;756321;183;918645;-67
2022/04/17 12:01:10;;;;;;;10.77;7.47;;;;;;;;;;753730;184;919861;-66
2022/04/17 12:03:35;;;;;;;11.17;6.80;;;;;;;;;;752617;186;919956;-66
2022/04/17 12:06:02;;;;;;;7.53;6.70;;;;;;;;;;758743;182;1022546;-66
2022/04/17 12:08:26;;;;;;;13.37;7.20;;;;;;;;;;758599;183;920385;-66
2022/04/17 12:10:52;;;;;;;8.10;7.30;;;;;;;;;;758301;184;681019;-66
2022/04/17 12:13:18;;;;;;;9.27;6.57;;;;;;;;;;756992;184;636766;-67
2022/04/17 12:15:44;;;;;;;5.27;4.60;;;;;;;;;;758761;183;655795;-66
2022/04/17 12:18:10;;;;;;;10.27;6.43;;;;;;;;;;759886;184;629281;-66
2022/04/17 12:20:38;;;;;;;10.30;7.70;;;;;;;;;;759232;184;635946;-65
2022/04/17 12:23:02;;;;;;;9.03;7.20;;;;;;;;;;755645;184;918578;-66
2022/04/17 12:25:28;;;;;;;9.57;6.70;;;;;;;;;;758902;183;918281;-66
2022/04/17 12:27:53;;;;;;;10.87;7.93;;;;;;;;;;755803;182;918461;-66
2022/04/17 12:30:19;;;;;;;8.13;6.03;;;;;;;;;;747474;186;630849;-66
2022/04/17 12:32:45;;;;;;;9.13;7.07;;;;;;;;;;744271;187;914701;-67
2022/04/17 12:35:13;;;;;;;7.20;5.53;;;;;;;;;;769549;182;627931;-66
2022/04/17 12:37:37;;;;;;;10.97;7.17;;;;;;;;;;755842;182;920796;-66
2022/04/17 12:40:09;;;;;;;12.30;5.90;;;;;;;;;;757568;183;918402;-66
2022/04/17 12:42:35;;;;;;;8.03;5.93;;;;;;;;;;761002;184;925464;-66
2022/04/17 12:45:01;;;;;;;8.63;5.60;;;;;;;;;;756166;183;920062;-66
2022/04/17 12:47:27;;;;;;;7.67;6.20;;;;;;;;;;756134;183;920158;-66
2022/04/17 12:49:58;;;;;;;8.60;5.07;;;;;;;;;;754920;184;919526;-66
2022/04/17 12:52:19;;;;;;;9.07;7.37;;;;;;;;;;762096;184;632202;-66
2022/04/17 12:54:45;;;;;;;10.60;7.13;;;;;;;;;;757060;184;918045;-66
2022/04/17 12:57:13;;;;;;;14.20;8.05;;;;;;;;;;743603;187;915129;-66
2022/04/17 12:59:41;;;;;;;11.20;7.77;;;;;;;;;;752581;183;914423;-65
2022/04/17 13:02:10;;;;;;;28.80;19.20;;;;;;;;;;758905;184;915961;-66
2022/04/17 13:04:36;;;;;;;13.73;10.23;;;;;;;;;;748890;183;1597748;-66
2022/04/17 13:07:05;;;;;;;12.73;8.70;;;;;;;;;;757289;184;919052;-66
2022/04/17 13:09:31;;;;;;;10.13;7.97;;;;;;;;;;761446;184;932758;-66
2022/04/17 13:11:57;;;;;;;9.67;7.07;;;;;;;;;;751780;184;918580;-66
2022/04/17 13:14:23;;;;;;;11.33;7.47;;;;;;;;;;756262;183;1028368;-66
2022/04/17 13:16:49;;;;;;;8.40;7.03;;;;;;;;;;761194;183;918568;-65
2022/04/17 13:19:15;;;;;;;6.73;5.67;;;;;;;;;;738833;187;919009;-66
2022/04/17 13:21:41;;;;;;;7.67;6.10;;;;;;;;;;754812;184;918351;-66
2022/04/17 13:24:07;;;;;;;10.70;7.53;;;;;;;;;;755525;184;923989;-66
2022/04/17 13:26:32;;;;;;;10.10;7.60;;;;;;;;;;764201;183;918891;-65
2022/04/17 13:28:58;;;;;;;6.30;5.47;;;;;;;;;;752716;183;921941;-67
2022/04/17 13:31:24;;;;;;;13.63;8.10;;;;;;;;;;756400;183;918343;-66
2022/04/17 13:33:50;;;;;;;12.83;7.70;;;;;;;;;;761110;183;919711;-65
2022/04/17 13:36:16;;;;;;;13.10;9.33;;;;;;;;;;735517;188;925143;-67
2022/04/17 13:38:42;;;;;;;9.13;7.68;;;;;;;;;;750200;185;920996;-66
2022/04/17 13:41:10;;;;;;;9.40;8.40;;;;;;;;;;755306;184;920321;-67
2022/04/17 13:43:35;;;;;;;15.17;10.10;;;;;;;;;;737787;187;918933;-67
2022/04/17 13:46:01;;;;;;;10.40;7.30;;;;;;;;;;754345;183;920034;-66
2022/04/17 13:48:27;;;;;;;18.70;7.50;;;;;;;;;;758200;183;919194;-66
2022/04/17 13:50:53;;;;;;;8.60;7.40;;;;;;;;;;743407;187;918674;-67
2022/04/17 13:53:19;;;;;;;9.33;6.63;;;;;;;;;;757841;183;909778;-66
2022/04/17 13:55:45;;;;;;;9.60;7.40;;;;;;;;;;747671;184;926676;-67
2022/04/17 13:58:11;;;;;;;10.83;8.23;;;;;;;;;;757673;184;918774;-66
2022/04/17 14:00:36;;;;;;;13.10;9.10;;;;;;;;;;754528;184;917575;-66
2022/04/17 14:03:02;;;;;;;9.30;7.40;;;;;;;;;;754649;184;920083;-66
2022/04/17 14:05:28;;;;;;;10.67;6.67;;;;;;;;;;760086;183;920166;-66
2022/04/17 14:07:54;;;;;;;9.47;7.30;;;;;;;;;;755904;184;950818;-65
2022/04/17 14:10:21;;;;;;;8.57;6.33;;;;;;;;;;755916;183;920116;-66
2022/04/17 14:12:46;;;;;;;11.27;7.40;;;;;;;;;;755971;184;917729;-65
2022/04/17 14:15:12;;;;;;;8.43;6.50;;;;;;;;;;760238;183;900877;-68
2022/04/17 14:17:38;;;;;;;13.47;6.60;;;;;;;;;;749055;183;918867;-66
2022/04/17 14:20:04;;;;;;;11.40;8.53;;;;;;;;;;746209;184;919715;-65
2022/04/17 14:22:29;;;;;;;8.33;7.53;;;;;;;;;;754285;185;925474;-66
2022/04/17 14:24:57;;;;;;;8.55;6.18;;;;;;;;;;754940;183;913925;-66
2022/04/17 14:27:24;;;;;;;14.67;9.20;;;;;;;;;;755251;183;918157;-66